Time;durP1;ratioP1;P1;durP2;ratioP2;P2;SDS_P1;SDS_P2;PMS_P1;PMS_P2;Temp;Humidity;BMP_temperature;BMP_pressure;BME280_temperature;BME280_humidity;BME280_pressure;Samples;Min_cycle;Max_cycle;Signal;HPM_P1;HPM_P2
2022/11/26 00:00:24;;;;;;;21.23;10.32;;;13.00;95.10;;;;;;5075685;28;20461;-77
2022/11/26 00:02:50;;;;;;;24.02;10.63;;;13.00;95.10;;;;;;5075650;28;20504;-77
2022/11/26 00:05:16;;;;;;;23.55;9.90;;;13.00;95.10;;;;;;5076017;28;20113;-77
2022/11/26 00:07:46;;;;;;;21.20;10.70;;;13.00;95.10;;;;;;5075467;28;20059;-77
2022/11/26 00:10:21;;;;;;;21.40;10.57;;;12.90;95.10;;;;;;5075856;28;20515;-77
2022/11/26 00:12:47;;;;;;;21.50;11.13;;;12.90;95.10;;;;;;5075406;28;20020;-77
2022/11/26 00:15:20;;;;;;;22.65;11.45;;;12.90;95.10;;;;;;5075795;28;20378;-78
2022/11/26 00:17:46;;;;;;;20.92;10.85;;;12.90;95.10;;;;;;5075422;28;20051;-77
2022/11/26 00:20:12;;;;;;;18.52;9.95;;;12.80;95.20;;;;;;5075628;28;20032;-76
2022/11/26 00:22:48;;;;;;;19.23;10.70;;;12.80;95.10;;;;;;5075595;28;20476;-77
2022/11/26 00:25:20;;;;;;;19.58;10.02;;;12.70;95.10;;;;;;5075954;28;20064;-74
2022/11/26 00:27:45;;;;;;;22.20;11.00;;;12.80;95.20;;;;;;5075134;28;20043;-75
2022/11/26 00:30:17;;;;;;;22.98;10.95;;;12.70;95.10;;;;;;5075513;28;20339;-74
2022/11/26 00:32:43;;;;;;;21.37;11.30;;;12.80;95.20;;;;;;5074896;28;20040;-74
2022/11/26 00:35:08;;;;;;;23.20;10.95;;;12.80;95.20;;;;;;5075073;28;20275;-73
2022/11/26 00:37:47;;;;;;;26.02;11.50;;;12.80;95.20;;;;;;5075423;28;20038;-74
2022/11/26 00:40:25;;;;;;;24.00;10.60;;;12.80;95.30;;;;;;5075220;28;20027;-75
2022/11/26 00:42:52;;;;;;;24.58;12.30;;;12.80;95.20;;;;;;5074825;28;20064;-75
2022/11/26 00:45:28;;;;;;;21.73;12.32;;;12.90;95.00;;;;;;5075207;28;20028;-73
2022/11/26 00:47:56;;;;;;;18.02;10.98;;;12.80;95.10;;;;;;5074911;28;20029;-74
2022/11/26 00:50:25;;;;;;;20.65;11.48;;;12.70;95.30;;;;;;5074742;28;20443;-74
2022/11/26 00:52:53;;;;;;;23.65;11.38;;;12.80;95.30;;;;;;5074682;28;20012;-75
2022/11/26 00:55:22;;;;;;;18.00;10.60;;;12.80;95.20;;;;;;5074830;28;20484;-74
2022/11/26 00:57:48;;;;;;;23.67;10.90;;;12.80;95.30;;;;;;5073718;28;20056;-75
2022/11/26 01:00:20;;;;;;;21.52;10.68;;;12.80;95.40;;;;;;5073923;28;20039;-76
2022/11/26 01:02:46;;;;;;;21.60;10.57;;;12.80;95.30;;;;;;5074333;28;20037;-76
2022/11/26 01:05:12;;;;;;;21.08;8.98;;;12.80;95.20;;;;;;5074431;28;20457;-76
2022/11/26 01:07:39;;;;;;;19.70;10.52;;;12.80;95.30;;;;;;5074663;28;20033;-74
2022/11/26 01:10:05;;;;;;;19.65;10.82;;;12.70;95.40;;;;;;5074586;28;20158;-75
2022/11/26 01:12:32;;;;;;;20.65;9.65;;;12.70;95.20;;;;;;5074364;28;20028;-74
2022/11/26 01:14:58;;;;;;;20.70;9.88;;;12.70;95.40;;;;;;5070815;28;20023;-73
2022/11/26 01:17:24;;;;;;;21.60;10.82;;;12.70;95.40;;;;;;5061777;28;20064;-74
2022/11/26 01:19:49;;;;;;;24.75;10.00;;;12.60;95.10;;;;;;5053319;28;20032;-77
2022/11/26 01:22:20;;;;;;;18.98;10.13;;;12.60;95.30;;;;;;5053466;28;20032;-74
2022/11/26 01:24:47;;;;;;;19.48;9.63;;;12.60;95.30;;;;;;5054217;28;20021;-76
2022/11/26 01:27:13;;;;;;;18.00;9.55;;;12.60;95.40;;;;;;5054105;28;20029;-76
2022/11/26 01:29:39;;;;;;;19.52;9.75;;;12.60;95.20;;;;;;5053923;28;20360;-77
2022/11/26 01:32:04;;;;;;;25.02;10.02;;;12.50;95.30;;;;;;5054154;28;20043;-75
2022/11/26 01:34:30;;;;;;;23.17;11.00;;;12.60;95.40;;;;;;5053869;28;20017;-76
2022/11/26 01:36:56;;;;;;;17.77;9.75;;;12.60;95.50;;;;;;5053849;28;20086;-76
2022/11/26 01:39:22;;;;;;;18.65;10.00;;;12.60;95.40;;;;;;5053986;28;20392;-75
2022/11/26 01:42:07;;;;;;;20.75;10.77;;;12.60;95.40;;;;;;5054021;28;20028;-76
2022/11/26 01:44:34;;;;;;;22.92;10.93;;;12.60;95.40;;;;;;5053910;28;20087;-75
2022/11/26 01:47:01;;;;;;;24.80;11.30;;;12.60;95.50;;;;;;5053857;28;20425;-75
2022/11/26 01:49:32;;;;;;;19.58;10.65;;;12.60;95.50;;;;;;5053597;28;20029;-73
2022/11/26 01:52:22;;;;;;;17.35;10.70;;;12.60;95.50;;;;;;5053698;28;20470;-78
2022/11/26 01:54:51;;;;;;;19.30;11.48;;;12.60;95.60;;;;;;5053418;28;20021;-74
2022/11/26 01:57:27;;;;;;;16.77;9.85;;;12.60;95.50;;;;;;5053671;28;20497;-75
2022/11/26 02:00:02;;;;;;;22.25;10.20;;;12.60;95.30;;;;;;5053466;28;20032;-76
2022/11/26 02:02:29;;;;;;;23.00;10.32;;;12.50;95.50;;;;;;5053204;28;20417;-74
2022/11/26 02:05:27;;;;;;;17.65;9.88;;;12.60;95.50;;;;;;5053383;28;20044;-76
2022/11/26 02:07:53;;;;;;;20.83;9.73;;;12.50;95.70;;;;;;5052773;28;20049;-75
2022/11/26 02:10:18;;;;;;;20.77;9.38;;;12.50;95.60;;;;;;5053202;28;20094;-73
2022/11/26 02:12:44;;;;;;;19.83;8.75;;;12.50;95.50;;;;;;5053408;28;20029;-76
2022/11/26 02:15:11;;;;;;;18.85;8.23;;;12.50;95.70;;;;;;5053361;28;20032;-77
2022/11/26 02:17:49;;;;;;;15.93;7.85;;;12.40;95.80;;;;;;5053099;28;20116;-73
2022/11/26 02:20:45;;;;;;;17.58;8.52;;;12.50;95.80;;;;;;5053131;28;20493;-74
2022/11/26 02:23:45;;;;;;;23.33;9.82;;;12.50;95.70;;;;;;5052995;28;20371;-73
2022/11/26 02:26:41;;;;;;;18.20;8.93;;;12.50;95.60;;;;;;5053074;28;20035;-77
2022/11/26 02:29:41;;;;;;;20.05;8.15;;;12.40;95.80;;;;;;5053046;28;20029;-74
2022/11/26 02:32:15;;;;;;;21.08;9.20;;;12.40;95.50;;;;;;5052837;28;20037;-73
2022/11/26 02:34:53;;;;;;;18.42;8.77;;;12.50;95.60;;;;;;5052949;28;20394;-74
2022/11/26 02:37:26;;;;;;;18.58;8.40;;;12.50;95.90;;;;;;5051740;28;20039;-76
2022/11/26 02:39:52;;;;;;;19.27;8.77;;;12.50;95.80;;;;;;5052799;28;20037;-76
2022/11/26 02:42:25;;;;;;;17.75;8.43;;;12.50;95.80;;;;;;5052876;28;20036;-76
2022/11/26 02:44:53;;;;;;;18.85;8.50;;;12.50;96.00;;;;;;5052910;28;20040;-77
2022/11/26 02:47:21;;;;;;;19.92;9.38;;;12.50;95.80;;;;;;5052589;28;20028;-73
2022/11/26 02:49:49;;;;;;;22.23;8.27;;;12.50;95.80;;;;;;5052822;28;20025;-77
2022/11/26 02:52:17;;;;;;;20.10;8.73;;;12.40;96.10;;;;;;5052960;28;20048;-73
2022/11/26 02:54:43;;;;;;;24.00;9.10;;;12.40;95.80;;;;;;5052618;28;20099;-73
2022/11/26 02:57:14;;;;;;;22.55;10.38;;;12.40;95.90;;;;;;5053008;28;20028;-73
2022/11/26 02:59:41;;;;;;;19.83;9.70;;;12.40;95.70;;;;;;5052597;28;20031;-72
2022/11/26 03:02:29;;;;;;;18.50;10.07;;;12.40;95.70;;;;;;5052714;28;20028;-73
2022/11/26 03:04:58;;;;;;;20.45;9.13;;;12.30;95.70;;;;;;5051393;28;20028;-73
2022/11/26 03:07:25;;;;;;;23.83;8.60;;;12.40;95.90;;;;;;5052925;28;20021;-73
2022/11/26 03:09:53;;;;;;;18.85;9.30;;;12.30;96.10;;;;;;5052434;28;20047;-73
2022/11/26 03:12:19;;;;;;;15.60;7.82;;;12.40;96.00;;;;;;5052753;28;20083;-72
2022/11/26 03:14:45;;;;;;;22.88;8.45;;;12.30;96.10;;;;;;5052240;28;20033;-74
2022/11/26 03:17:11;;;;;;;18.42;7.97;;;12.40;95.90;;;;;;5052821;28;20021;-76
2022/11/26 03:19:37;;;;;;;16.58;8.30;;;12.40;95.80;;;;;;5052521;28;20032;-74
2022/11/26 03:22:03;;;;;;;16.92;7.53;;;12.30;96.20;;;;;;5052286;28;20057;-75
2022/11/26 03:24:30;;;;;;;18.27;7.80;;;12.30;96.10;;;;;;5055320;28;20024;-77
2022/11/26 03:26:55;;;;;;;18.33;7.80;;;12.40;95.90;;;;;;5056205;28;20025;-76
2022/11/26 03:29:21;;;;;;;19.83;8.48;;;12.40;95.90;;;;;;5054973;28;20021;-76
2022/11/26 03:31:47;;;;;;;18.45;7.55;;;12.30;95.90;;;;;;5056455;28;20079;-76
2022/11/26 03:34:13;;;;;;;15.88;6.68;;;12.30;95.90;;;;;;5056611;28;20428;-77
2022/11/26 03:36:39;;;;;;;16.00;7.10;;;12.30;96.00;;;;;;5058825;28;20029;-76
2022/11/26 03:39:05;;;;;;;17.63;7.82;;;12.30;95.90;;;;;;5057577;28;20040;-76
2022/11/26 03:41:31;;;;;;;17.50;8.65;;;12.30;95.90;;;;;;5056086;28;20021;-75
2022/11/26 03:43:57;;;;;;;22.55;8.15;;;12.30;95.70;;;;;;5054422;28;20035;-75
2022/11/26 03:46:23;;;;;;;18.08;8.02;;;12.20;96.00;;;;;;5056084;28;20025;-73
2022/11/26 03:48:48;;;;;;;18.52;8.30;;;12.20;96.00;;;;;;5055015;28;20025;-76
2022/11/26 03:51:14;;;;;;;16.98;7.85;;;12.30;95.90;;;;;;5056093;28;20548;-74
2022/11/26 03:53:39;;;;;;;15.52;7.30;;;12.30;96.10;;;;;;5055980;28;20021;-76
2022/11/26 03:56:05;;;;;;;24.25;8.20;;;12.30;96.20;;;;;;5055719;28;20071;-73
2022/11/26 03:58:31;;;;;;;18.92;7.75;;;12.20;96.10;;;;;;5055711;28;20068;-77
2022/11/26 04:00:56;;;;;;;23.50;8.82;;;12.20;96.10;;;;;;5056051;28;20048;-76
2022/11/26 04:03:22;;;;;;;19.83;7.43;;;12.20;95.70;;;;;;5055877;28;20506;-76
2022/11/26 04:05:48;;;;;;;21.33;7.70;;;12.10;95.90;;;;;;5055745;28;20508;-76
2022/11/26 04:08:13;;;;;;;19.67;7.25;;;12.10;96.30;;;;;;5055775;28;20273;-77
2022/11/26 04:10:39;;;;;;;20.30;8.38;;;12.10;96.20;;;;;;5056295;28;20429;-73
2022/11/26 04:13:04;;;;;;;20.02;7.80;;;12.20;96.00;;;;;;5055329;28;20025;-76
2022/11/26 04:15:30;;;;;;;20.98;7.32;;;12.10;96.00;;;;;;5055857;28;20052;-74
2022/11/26 04:17:56;;;;;;;21.60;8.52;;;12.10;95.90;;;;;;5055384;28;20541;-75
2022/11/26 04:20:22;;;;;;;20.65;7.70;;;12.10;95.90;;;;;;5054173;28;20025;-76
2022/11/26 04:22:47;;;;;;;18.95;7.22;;;12.10;95.90;;;;;;5055774;28;20025;-76
2022/11/26 04:25:13;;;;;;;25.80;7.88;;;12.10;95.90;;;;;;5055330;28;20072;-73
2022/11/26 04:27:38;;;;;;;17.00;6.70;;;12.10;95.90;;;;;;5054901;28;20028;-76
2022/11/26 04:30:06;;;;;;;19.23;7.18;;;12.10;96.00;;;;;;5055584;28;20032;-72
2022/11/26 04:32:32;;;;;;;19.88;7.50;;;12.00;96.10;;;;;;5055164;28;20032;-75
2022/11/26 04:34:57;;;;;;;15.40;7.32;;;12.10;95.90;;;;;;5054114;28;20029;-74
2022/11/26 04:37:23;;;;;;;16.85;7.45;;;12.10;96.10;;;;;;5055299;28;20494;-72
2022/11/26 04:39:48;;;;;;;18.95;7.85;;;12.00;95.80;;;;;;5055241;28;20029;-72
2022/11/26 04:42:14;;;;;;;17.48;7.78;;;11.90;95.80;;;;;;5054455;28;20035;-72
2022/11/26 04:44:40;;;;;;;16.35;6.68;;;11.80;96.10;;;;;;5055216;28;20115;-72
2022/11/26 04:47:05;;;;;;;21.70;8.50;;;12.00;96.20;;;;;;5054896;28;20096;-74
2022/11/26 04:49:31;;;;;;;15.18;7.82;;;12.00;96.10;;;;;;5055148;28;20029;-73
2022/11/26 04:51:56;;;;;;;20.63;7.25;;;12.00;96.30;;;;;;5054716;28;20025;-73
2022/11/26 04:54:22;;;;;;;18.15;6.70;;;12.00;96.30;;;;;;5053860;28;20013;-73
2022/11/26 04:56:48;;;;;;;24.10;8.57;;;12.00;96.30;;;;;;5054358;28;20032;-73
2022/11/26 04:59:14;;;;;;;18.25;7.68;;;12.00;96.00;;;;;;5054859;28;20017;-73
2022/11/26 05:01:39;;;;;;;19.45;7.72;;;12.00;96.00;;;;;;5054795;28;20025;-73
2022/11/26 05:04:05;;;;;;;17.35;7.43;;;11.90;96.00;;;;;;5054513;28;20056;-74
2022/11/26 05:06:30;;;;;;;19.88;7.85;;;12.00;96.10;;;;;;5053618;28;20365;-74
2022/11/26 05:08:56;;;;;;;17.17;6.35;;;11.90;96.10;;;;;;5054305;28;20055;-73
2022/11/26 05:11:22;;;;;;;21.52;7.30;;;11.90;96.40;;;;;;5053365;28;20046;-75
2022/11/26 05:13:47;;;;;;;17.88;7.10;;;11.90;96.30;;;;;;5054728;28;20029;-76
2022/11/26 05:16:13;;;;;;;24.60;7.95;;;11.90;96.10;;;;;;5054487;28;20107;-76
2022/11/26 05:18:38;;;;;;;23.45;9.00;;;11.80;96.10;;;;;;5054164;28;20060;-76
2022/11/26 05:21:05;;;;;;;20.05;8.55;;;11.90;96.20;;;;;;5054478;28;20110;-76
2022/11/26 05:23:31;;;;;;;19.10;7.88;;;11.90;96.20;;;;;;5054283;28;20033;-77
2022/11/26 05:25:56;;;;;;;22.25;7.47;;;11.90;96.30;;;;;;5053940;28;20031;-74
2022/11/26 05:28:22;;;;;;;22.98;8.07;;;11.90;96.30;;;;;;5054086;28;20021;-75
2022/11/26 05:30:47;;;;;;;20.63;7.43;;;11.80;96.30;;;;;;5054348;28;20390;-73
2022/11/26 05:33:13;;;;;;;23.80;8.30;;;11.80;96.30;;;;;;5054276;28;20029;-73
2022/11/26 05:35:38;;;;;;;22.98;7.63;;;11.90;96.60;;;;;;5054138;28;20025;-74
2022/11/26 05:38:04;;;;;;;24.00;6.82;;;11.90;96.50;;;;;;5054123;28;20024;-74
2022/11/26 05:40:30;;;;;;;18.00;7.18;;;11.90;96.30;;;;;;5054870;28;20382;-75
2022/11/26 05:42:55;;;;;;;18.10;7.63;;;11.90;96.30;;;;;;5063614;28;20029;-77
2022/11/26 05:45:21;;;;;;;17.52;6.88;;;11.90;96.30;;;;;;5053525;28;20308;-76
2022/11/26 05:47:46;;;;;;;15.32;6.82;;;11.90;96.30;;;;;;5069743;28;20178;-74
2022/11/26 05:50:13;;;;;;;19.52;6.93;;;11.80;96.30;;;;;;5073691;28;20032;-74
2022/11/26 05:52:39;;;;;;;16.67;6.78;;;11.90;96.30;;;;;;5072493;28;20481;-73
2022/11/26 05:55:05;;;;;;;18.15;6.90;;;11.80;96.20;;;;;;5073435;28;20028;-73
2022/11/26 05:57:30;;;;;;;20.42;6.53;;;11.80;96.20;;;;;;5073582;28;20028;-73
2022/11/26 05:59:56;;;;;;;18.80;6.95;;;11.70;96.30;;;;;;5073381;28;20017;-73
2022/11/26 06:02:22;;;;;;;17.13;6.10;;;11.70;96.30;;;;;;5055283;28;20431;-74
2022/11/26 06:04:47;;;;;;;21.90;6.85;;;11.70;96.30;;;;;;5053217;28;20029;-74
2022/11/26 06:07:13;;;;;;;18.08;6.45;;;11.70;96.50;;;;;;5049880;28;20025;-74
2022/11/26 06:09:38;;;;;;;17.23;6.60;;;11.80;96.40;;;;;;5050889;28;20029;-73
2022/11/26 06:12:04;;;;;;;18.58;6.78;;;11.70;96.40;;;;;;5052377;28;20025;-74
2022/11/26 06:14:29;;;;;;;21.45;7.38;;;11.70;96.50;;;;;;5053653;28;20025;-75
2022/11/26 06:16:55;;;;;;;19.13;6.22;;;11.70;96.50;;;;;;5053470;28;20040;-74
2022/11/26 06:19:21;;;;;;;23.63;7.78;;;11.60;96.40;;;;;;5053353;28;20025;-75
2022/11/26 06:21:46;;;;;;;18.25;6.50;;;11.70;96.50;;;;;;5053402;28;20029;-74
2022/11/26 06:24:12;;;;;;;21.30;6.97;;;11.70;96.70;;;;;;5053077;28;20037;-76
2022/11/26 06:26:39;;;;;;;15.93;6.45;;;11.70;96.50;;;;;;5053575;28;20128;-75
2022/11/26 06:29:05;;;;;;;25.02;6.80;;;11.70;96.60;;;;;;5053146;28;20614;-73
2022/11/26 06:31:31;;;;;;;16.77;7.53;;;11.70;96.70;;;;;;5053182;28;20032;-73
2022/11/26 06:33:57;;;;;;;19.40;6.03;;;11.70;96.50;;;;;;5052929;28;20371;-76
2022/11/26 06:36:23;;;;;;;21.42;6.63;;;11.60;96.30;;;;;;5053169;28;20024;-76
2022/11/26 06:38:48;;;;;;;23.15;7.47;;;11.60;96.70;;;;;;5052861;28;20075;-74
2022/11/26 06:41:14;;;;;;;22.92;6.45;;;11.60;96.40;;;;;;5052888;28;20028;-76
2022/11/26 06:43:40;;;;;;;16.90;6.68;;;11.60;96.50;;;;;;5053000;28;20033;-77
2022/11/26 06:46:07;;;;;;;17.80;5.80;;;11.60;96.60;;;;;;5053166;28;20108;-76
2022/11/26 06:48:34;;;;;;;20.20;7.15;;;11.60;96.60;;;;;;5052319;28;20078;-77
2022/11/26 06:51:05;;;;;;;20.40;6.70;;;11.50;96.60;;;;;;5053185;28;20054;-76
2022/11/26 06:53:31;;;;;;;20.80;7.07;;;11.60;96.50;;;;;;5052927;28;20025;-74
2022/11/26 06:56:04;;;;;;;20.02;6.55;;;11.60;96.60;;;;;;5052898;28;20474;-76
2022/11/26 06:58:30;;;;;;;25.17;7.07;;;11.50;96.60;;;;;;5055721;28;20562;-73
2022/11/26 07:00:56;;;;;;;21.65;6.93;;;11.60;96.60;;;;;;5055751;28;20104;-69
2022/11/26 07:03:22;;;;;;;24.65;7.15;;;11.60;96.50;;;;;;5055078;28;20171;-70
2022/11/26 07:05:48;;;;;;;21.65;6.75;;;11.60;96.70;;;;;;5055473;28;20021;-69
2022/11/26 07:08:13;;;;;;;16.10;6.78;;;11.50;97.30;;;;;;5060021;28;20538;-69
2022/11/26 07:10:39;;;;;;;15.77;5.80;;;11.60;96.90;;;;;;5063412;28;20426;-70
2022/11/26 07:13:04;;;;;;;20.33;6.28;;;11.70;96.90;;;;;;5054684;28;20412;-68
2022/11/26 07:15:30;;;;;;;22.20;5.55;;;11.70;96.80;;;;;;5057971;28;20378;-70
2022/11/26 07:17:58;;;;;;;24.67;7.38;;;11.70;97.70;;;;;;5062905;28;20029;-68
2022/11/26 07:20:23;;;;;;;20.15;6.95;;;11.70;97.10;;;;;;5051342;28;20028;-67
2022/11/26 07:22:49;;;;;;;20.60;5.82;;;11.70;96.90;;;;;;5063728;28;20033;-71
2022/11/26 07:25:16;;;;;;;15.75;6.78;;;11.70;97.10;;;;;;5051584;28;20036;-68
2022/11/26 07:27:42;;;;;;;14.80;4.75;;;11.80;97.00;;;;;;5049100;28;20043;-68
2022/11/26 07:30:08;;;;;;;18.00;5.43;;;11.80;97.90;;;;;;5055389;28;20060;-70
2022/11/26 07:32:33;;;;;;;14.50;5.47;;;11.80;98.20;;;;;;5056253;28;20036;-69
2022/11/26 07:35:00;;;;;;;18.48;5.47;;;11.80;97.80;;;;;;5063859;28;20028;-68
2022/11/26 07:37:26;;;;;;;16.45;5.25;;;11.90;98.00;;;;;;5055727;28;20025;-70
2022/11/26 07:39:52;;;;;;;18.83;5.18;;;11.90;98.10;;;;;;5067500;28;20024;-68
2022/11/26 07:42:17;;;;;;;15.77;5.57;;;12.00;98.30;;;;;;5067019;28;20025;-70
2022/11/26 07:44:43;;;;;;;18.30;6.45;;;12.00;98.40;;;;;;5059847;28;20076;-69
2022/11/26 07:47:08;;;;;;;17.55;6.00;;;12.00;98.30;;;;;;5053232;28;20029;-67
2022/11/26 07:49:34;;;;;;;15.05;5.78;;;12.10;98.40;;;;;;5051384;28;20021;-67
2022/11/26 07:51:59;;;;;;;18.13;6.22;;;12.10;97.80;;;;;;5057898;28;20032;-70
2022/11/26 07:54:25;;;;;;;19.63;6.82;;;12.00;97.80;;;;;;5050139;28;20025;-70
2022/11/26 07:56:50;;;;;;;17.55;5.82;;;12.10;97.80;;;;;;5048732;28;20500;-70
2022/11/26 07:59:16;;;;;;;23.92;6.30;;;12.10;98.20;;;;;;5050479;28;20530;-69
2022/11/26 08:01:41;;;;;;;14.15;4.85;;;12.00;98.30;;;;;;5055154;28;20016;-69
2022/11/26 08:04:07;;;;;;;18.25;6.18;;;12.10;98.50;;;;;;5054439;28;20512;-70
2022/11/26 08:06:33;;;;;;;30.70;7.55;;;12.20;98.70;;;;;;5050767;28;20040;-70
2022/11/26 08:09:01;;;;;;;26.23;6.88;;;12.20;98.50;;;;;;5058071;28;20033;-68
2022/11/26 08:11:28;;;;;;;42.08;8.52;;;12.20;98.40;;;;;;5054988;28;20021;-70
2022/11/26 08:13:56;;;;;;;47.17;8.80;;;12.30;98.60;;;;;;5055483;28;20104;-70
2022/11/26 08:16:22;;;;;;;31.58;8.60;;;12.30;98.40;;;;;;5057946;28;20028;-70
2022/11/26 08:18:51;;;;;;;26.17;7.70;;;12.30;98.00;;;;;;5065808;28;20028;-70
2022/11/26 08:21:16;;;;;;;46.95;8.55;;;12.30;98.00;;;;;;5058576;28;20021;-67
2022/11/26 08:23:42;;;;;;;35.78;7.88;;;12.30;98.40;;;;;;5054334;28;20037;-69
2022/11/26 08:26:11;;;;;;;29.95;8.63;;;12.30;98.40;;;;;;5068599;28;20024;-68
2022/11/26 08:28:36;;;;;;;30.33;7.30;;;12.40;98.70;;;;;;5075288;28;20028;-69
2022/11/26 08:31:04;;;;;;;33.28;8.05;;;12.40;98.70;;;;;;5072535;28;20097;-68
2022/11/26 08:33:30;;;;;;;32.88;7.93;;;12.40;98.60;;;;;;5062400;28;20849;-70
2022/11/26 08:35:56;;;;;;;31.70;8.15;;;12.50;98.70;;;;;;5060888;28;20532;-67
2022/11/26 08:38:22;;;;;;;30.77;7.60;;;12.40;98.80;;;;;;5062547;28;20017;-68
2022/11/26 08:40:47;;;;;;;23.45;7.22;;;12.50;98.60;;;;;;5062542;28;20029;-68
2022/11/26 08:43:13;;;;;;;27.55;7.72;;;12.50;98.70;;;;;;5059091;28;20079;-69
2022/11/26 08:45:38;;;;;;;29.95;7.13;;;12.50;98.70;;;;;;5056874;28;20024;-68
2022/11/26 08:48:05;;;;;;;37.75;9.52;;;12.60;98.60;;;;;;5052610;28;20032;-68
2022/11/26 08:50:32;;;;;;;354.58;54.45;;;12.60;98.30;;;;;;5058935;28;20017;-68
2022/11/26 08:52:57;;;;;;;1999.90;444.13;;;12.60;98.40;;;;;;5065759;28;20112;-69
2022/11/26 08:55:23;;;;;;;1999.90;362.33;;;12.50;98.30;;;;;;5059621;28;20545;-70
2022/11/26 08:57:48;;;;;;;551.22;93.25;;;12.60;98.30;;;;;;5064140;28;20040;-70
2022/11/26 09:00:14;;;;;;;150.50;27.95;;;12.50;97.90;;;;;;5058106;28;20016;-69
2022/11/26 09:02:40;;;;;;;71.13;13.50;;;12.50;97.80;;;;;;5056364;28;20040;-71
2022/11/26 09:05:06;;;;;;;45.17;9.93;;;12.50;98.20;;;;;;5061453;28;20053;-70
2022/11/26 09:07:32;;;;;;;42.45;9.02;;;12.50;98.50;;;;;;5058924;28;20031;-71
2022/11/26 09:09:57;;;;;;;34.53;7.90;;;12.50;98.30;;;;;;5078656;28;20024;-71
2022/11/26 09:12:23;;;;;;;28.08;8.20;;;12.60;98.30;;;;;;5072525;28;20036;-71
2022/11/26 09:14:48;;;;;;;32.95;8.23;;;12.50;98.20;;;;;;5067983;28;20019;-68
2022/11/26 09:17:14;;;;;;;33.38;8.35;;;12.50;98.30;;;;;;5069323;28;20024;-70
2022/11/26 09:19:40;;;;;;;30.52;7.20;;;12.60;98.40;;;;;;5056123;28;20031;-70
2022/11/26 09:22:05;;;;;;;35.83;7.45;;;12.60;98.40;;;;;;5051350;28;21835;-69
2022/11/26 09:24:31;;;;;;;47.33;9.60;;;12.60;98.60;;;;;;5055054;28;20029;-69
2022/11/26 09:26:56;;;;;;;39.15;9.07;;;12.60;98.50;;;;;;5055049;28;20120;-68
2022/11/26 09:29:23;;;;;;;111.35;18.13;;;12.70;98.40;;;;;;5064769;28;20021;-69
2022/11/26 09:31:49;;;;;;;68.30;11.80;;;12.60;98.10;;;;;;5062535;28;20090;-70
2022/11/26 09:34:15;;;;;;;98.28;15.40;;;12.60;98.00;;;;;;5049994;28;20268;-68
2022/11/26 09:36:41;;;;;;;101.32;13.80;;;12.60;98.00;;;;;;5057190;28;20035;-68
2022/11/26 09:39:07;;;;;;;79.72;14.85;;;12.60;97.90;;;;;;5053059;28;20056;-69
2022/11/26 09:41:51;;;;;;;78.00;12.73;;;12.70;97.90;;;;;;5058980;28;20020;-69
2022/11/26 09:45:02;;;;;;;80.88;13.18;;;12.70;98.00;;;;;;5065450;28;20029;-69
2022/11/26 09:47:37;;;;;;;82.78;13.20;;;12.60;98.00;;;;;;5054896;28;20048;-69
2022/11/26 09:50:14;;;;;;;67.93;11.80;;;12.70;98.00;;;;;;5063038;28;20123;-69
2022/11/26 09:52:52;;;;;;;40.70;9.75;;;12.70;98.00;;;;;;5049873;28;20037;-69
2022/11/26 09:55:24;;;;;;;19.48;7.65;;;12.60;98.10;;;;;;5052687;28;20027;-69
2022/11/26 09:58:26;;;;;;;23.33;7.20;;;12.60;98.00;;;;;;5059350;28;21192;-69
2022/11/26 10:00:55;;;;;;;30.63;8.07;;;12.70;98.00;;;;;;5064135;28;20103;-68
2022/11/26 10:03:23;;;;;;;28.17;8.23;;;12.60;98.00;;;;;;5052260;28;20044;-70
2022/11/26 10:06:17;;;;;;;37.83;8.25;;;12.70;98.10;;;;;;5056389;28;20061;-68
2022/11/26 10:09:37;;;;;;;26.95;8.77;;;12.60;98.20;;;;;;5060397;28;20032;-68
2022/11/26 10:12:17;;;;;;;21.80;7.80;;;12.60;98.30;;;;;;5063574;28;20037;-69
2022/11/26 10:15:01;;;;;;;31.80;7.80;;;12.60;98.10;;;;;;5051922;28;20086;-68
2022/11/26 10:17:53;;;;;;;34.03;8.13;;;12.50;98.30;;;;;;5048799;28;20734;-70
2022/11/26 10:20:48;;;;;;;48.72;10.13;;;12.60;98.30;;;;;;5060763;28;20036;-68
2022/11/26 10:23:20;;;;;;;49.13;9.15;;;12.70;98.50;;;;;;5050996;28;20101;-69
2022/11/26 10:26:00;;;;;;;43.60;9.20;;;12.70;98.50;;;;;;5055238;28;20402;-68
2022/11/26 10:28:31;;;;;;;38.17;9.93;;;12.70;98.60;;;;;;5045886;28;20330;-71
2022/11/26 10:31:07;;;;;;;49.60;9.90;;;12.80;98.60;;;;;;5057585;28;20107;-70
2022/11/26 10:33:47;;;;;;;45.15;9.40;;;12.70;98.70;;;;;;5050567;28;20079;-68
2022/11/26 10:36:21;;;;;;;35.97;8.48;;;12.80;98.90;;;;;;5054553;28;20033;-69
2022/11/26 10:38:47;;;;;;;52.10;10.00;;;12.80;98.90;;;;;;5047592;28;20832;-68
2022/11/26 10:41:13;;;;;;;37.42;8.25;;;12.80;99.40;;;;;;5046866;28;20020;-67
2022/11/26 10:43:39;;;;;;;43.22;7.82;;;12.80;99.20;;;;;;5052008;28;20077;-67
2022/11/26 10:46:04;;;;;;;47.75;8.73;;;12.90;99.40;;;;;;5052166;28;20075;-69
2022/11/26 10:48:33;;;;;;;44.42;8.73;;;12.80;99.80;;;;;;5054663;28;20032;-68
2022/11/26 10:51:29;;;;;;;43.22;7.88;;;12.90;99.60;;;;;;5051385;28;20097;-69
2022/11/26 10:53:55;;;;;;;31.90;7.45;;;13.00;99.50;;;;;;5051485;28;20032;-70
2022/11/26 10:56:45;;;;;;;33.03;8.18;;;13.10;99.20;;;;;;5054991;28;20111;-69
2022/11/26 10:59:21;;;;;;;34.00;8.38;;;13.00;99.10;;;;;;5050387;28;20024;-68
2022/11/26 11:01:48;;;;;;;29.60;7.82;;;13.00;99.00;;;;;;5053901;28;20029;-69
2022/11/26 11:04:26;;;;;;;19.88;6.93;;;13.10;98.80;;;;;;5051903;28;20123;-68
2022/11/26 11:06:53;;;;;;;24.55;6.72;;;13.10;98.80;;;;;;5053053;28;20496;-68
2022/11/26 11:09:26;;;;;;;25.17;7.25;;;13.10;98.50;;;;;;5056633;28;20032;-69
2022/11/26 11:12:09;;;;;;;18.67;7.57;;;13.10;98.50;;;;;;5069522;28;20689;-75
2022/11/26 11:14:35;;;;;;;26.98;6.72;;;13.00;98.40;;;;;;5050458;28;20032;-70
2022/11/26 11:17:01;;;;;;;25.10;6.28;;;13.00;98.30;;;;;;5062384;28;20029;-72
2022/11/26 11:19:27;;;;;;;23.67;6.40;;;13.00;98.40;;;;;;5053595;28;20155;-69
2022/11/26 11:21:53;;;;;;;25.13;7.20;;;12.90;98.40;;;;;;5066758;28;20028;-72
2022/11/26 11:24:27;;;;;;;32.00;7.65;;;12.90;98.50;;;;;;5061749;28;20054;-68
2022/11/26 11:26:56;;;;;;;31.20;7.35;;;13.00;98.60;;;;;;5045330;28;20027;-71
2022/11/26 11:29:27;;;;;;;51.33;10.57;;;13.00;98.50;;;;;;5046811;28;20112;-70
2022/11/26 11:31:55;;;;;;;36.15;7.65;;;13.10;98.80;;;;;;5058894;28;20037;-68
2022/11/26 11:34:26;;;;;;;34.95;7.97;;;13.10;99.00;;;;;;5059996;28;20065;-71
2022/11/26 11:37:12;;;;;;;39.20;7.57;;;13.20;98.80;;;;;;5055914;28;20745;-70
2022/11/26 11:39:39;;;;;;;53.80;9.30;;;13.10;98.80;;;;;;5047952;28;20094;-71
2022/11/26 11:42:18;;;;;;;76.88;10.68;;;13.30;99.10;;;;;;5056115;28;20064;-70
2022/11/26 11:44:49;;;;;;;71.05;11.35;;;13.30;99.60;;;;;;5053754;28;20090;-68
2022/11/26 11:47:35;;;;;;;64.88;10.90;;;13.40;99.90;;;;;;5061358;28;20035;-72
2022/11/26 11:50:37;;;;;;;37.58;7.82;;;13.50;99.90;;;;;;5057278;28;20096;-70
2022/11/26 11:53:24;;;;;;;38.37;7.73;;;13.50;99.90;;;;;;5055398;28;20045;-67
2022/11/26 11:55:59;;;;;;;43.95;7.60;;;13.50;99.90;;;;;;5051344;28;20162;-71
2022/11/26 11:58:43;;;;;;;49.58;7.80;;;13.50;99.90;;;;;;5058092;28;20029;-70
2022/11/26 12:01:15;;;;;;;53.50;7.70;;;13.70;99.90;;;;;;5059003;28;20032;-69
2022/11/26 12:03:54;;;;;;;27.03;6.37;;;13.90;99.90;;;;;;5044647;28;20146;-71
2022/11/26 12:06:44;;;;;;;42.40;6.95;;;13.80;99.90;;;;;;5054365;28;20021;-71
2022/11/26 12:09:35;;;;;;;40.63;6.90;;;14.00;99.90;;;;;;5054579;28;20053;-70
2022/11/26 12:12:16;;;;;;;31.05;5.90;;;13.90;99.90;;;;;;5053397;28;20121;-68
2022/11/26 12:14:46;;;;;;;29.90;6.38;;;14.00;99.90;;;;;;5062947;28;20184;-69
2022/11/26 12:17:34;;;;;;;25.27;5.32;;;14.10;99.90;;;;;;5054341;28;20032;-69
2022/11/26 12:20:26;;;;;;;29.25;4.80;;;14.20;99.90;;;;;;5065527;28;20020;-70
2022/11/26 12:23:05;;;;;;;27.95;6.00;;;14.30;99.90;;;;;;5061860;28;20052;-68
2022/11/26 12:25:36;;;;;;;21.13;4.72;;;14.30;99.90;;;;;;5057140;28;20024;-69
2022/11/26 12:28:30;;;;;;;24.90;5.05;;;14.40;99.70;;;;;;5047314;28;20024;-69
2022/11/26 12:31:12;;;;;;;25.52;5.97;;;14.30;99.70;;;;;;5063153;28;20047;-70
2022/11/26 12:34:01;;;;;;;21.38;4.88;;;14.30;99.30;;;;;;5058666;28;20564;-70
2022/11/26 12:36:49;;;;;;;15.73;4.30;;;14.30;99.00;;;;;;5063238;28;20032;-70
2022/11/26 12:39:28;;;;;;;16.90;5.32;;;14.30;98.90;;;;;;5053327;28;20186;-70
2022/11/26 12:42:18;;;;;;;16.38;4.97;;;14.20;98.60;;;;;;5047763;28;20059;-69
2022/11/26 12:44:48;;;;;;;18.55;4.47;;;14.30;98.50;;;;;;5044942;28;20032;-70
2022/11/26 12:47:33;;;;;;;12.23;3.58;;;14.20;98.30;;;;;;5060566;28;20147;-69
2022/11/26 12:50:22;;;;;;;17.33;4.80;;;14.20;98.40;;;;;;5055974;28;20086;-71